| time (UTC) | temp C | wind direction | speed KPH | gust KPH | rain 1hr cm | rain 24hr cm | rain mn cm | humidity % | barometer mb |
| 20260503005008 | 8 | 309 | 9.7 | 14.5 | 0.00 | 0.00 | 0.00 | 86 | 1008.4 |
| 20260503004508 | 8 | 292 | 11.3 | 19.3 | 0.00 | 0.00 | 0.00 | 86 | 1008.4 |
| 20260503004007 | 8 | 295 | 12.9 | 16.1 | 0.00 | 0.00 | 0.00 | 86 | 1008.4 |
| 20260503003012 | 8 | 291 | 9.7 | 12.9 | 0.00 | 0.00 | 0.00 | 86 | 1008.5 |
| 20260503002508 | 8 | 302 | 9.7 | 12.9 | 0.00 | 0.00 | 0.00 | 86 | 1008.5 |
| 20260503002008 | 8 | 310 | 11.3 | 14.5 | 0.00 | 0.00 | 0.00 | 86 | 1008.4 |
| 20260503001508 | 8 | 315 | 12.9 | 19.3 | 0.00 | 0.00 | 0.00 | 86 | 1008.5 |
| 20260503001007 | 8 | 309 | 11.3 | 16.1 | 0.00 | 0.00 | 0.00 | 86 | 1008.5 |
| 20260503000507 | 8 | 308 | 12.9 | 19.3 | 0.00 | 0.00 | 0.00 | 86 | 1008.7 |
| 20260503000011 | 8 | 306 | 14.5 | 20.9 | 0.00 | 0.00 | 0.00 | 86 | 1008.6 |
| 20260502235508 | 8 | 310 | 16.1 | 24.1 | 0.00 | 0.00 | 0.00 | 86 | 1008.5 |
| 20260502234507 | 8 | 314 | 12.9 | 19.3 | 0.00 | 0.00 | 0.00 | 86 | 1008.6 |
| 20260502234007 | 8 | 312 | 14.5 | 19.3 | 0.00 | 0.00 | 0.00 | 86 | 1008.7 |
| 20260502233508 | 8 | 310 | 11.3 | 19.3 | 0.00 | 0.00 | 0.00 | 86 | 1008.7 |
| 20260502233011 | 8 | 310 | 12.9 | 20.9 | 0.00 | 0.00 | 0.00 | 86 | 1008.7 |
| 20260502232508 | 8 | 311 | 14.5 | 22.5 | 0.00 | 0.00 | 0.00 | 85 | 1008.7 |
| 20260502231007 | 8 | 309 | 14.5 | 22.5 | 0.00 | 0.00 | 0.00 | 85 | 1008.9 |
| 20260502230508 | 8 | 294 | 19.3 | 25.7 | 0.00 | 0.00 | 0.00 | 84 | 1008.9 |
| 20260502225508 | 8 | 274 | 11.3 | 25.7 | 0.00 | 0.00 | 0.00 | 84 | 1009.0 |
| 20260502225007 | 8 | 292 | 11.3 | 22.5 | 0.00 | 0.00 | 0.00 | 84 | 1009.0 |
| 20260502224508 | 8 | 291 | 16.1 | 22.5 | 0.00 | 0.00 | 0.00 | 85 | 1009.0 |
| 20260502224008 | 8 | 298 | 12.9 | 19.3 | 0.00 | 0.00 | 0.00 | 85 | 1008.9 |
| 20260502223508 | 8 | 302 | 11.3 | 19.3 | 0.00 | 0.00 | 0.00 | 85 | 1008.9 |
| 20260502223012 | 8 | 293 | 11.3 | 19.3 | 0.00 | 0.00 | 0.00 | 85 | 1008.9 |
| 20260502222508 | 8 | 299 | 11.3 | 16.1 | 0.00 | 0.00 | 0.00 | 85 | 1008.8 |
| 20260502222007 | 8 | 313 | 11.3 | 14.5 | 0.00 | 0.00 | 0.00 | 85 | 1008.7 |
| 20260502221508 | 8 | 311 | 9.7 | 14.5 | 0.00 | 0.00 | 0.00 | 85 | 1008.7 |
| 20260502221007 | 8 | 309 | 9.7 | 14.5 | 0.00 | 0.00 | 0.00 | 84 | 1008.8 |
| 20260502220508 | 8 | 311 | 11.3 | 16.1 | 0.00 | 0.00 | 0.00 | 84 | 1008.9 |
| 20260502220011 | 8 | 304 | 9.7 | 16.1 | 0.00 | 0.00 | 0.00 | 84 | 1008.9 |
| 20260502215508 | 9 | 305 | 11.3 | 16.1 | 0.00 | 0.00 | 0.00 | 84 | 1008.8 |
| 20260502215008 | 9 | 302 | 12.9 | 19.3 | 0.00 | 0.00 | 0.00 | 84 | 1008.8 |
| 20260502214508 | 9 | 308 | 9.7 | 19.3 | 0.00 | 0.00 | 0.00 | 84 | 1008.7 |
| 20260502214007 | 9 | 304 | 11.3 | 16.1 | 0.00 | 0.00 | 0.00 | 84 | 1008.8 |
| 20260502213508 | 9 | 303 | 9.7 | 14.5 | 0.00 | 0.00 | 0.00 | 84 | 1008.8 |
| 20260502212507 | 10 | 303 | 12.9 | 16.1 | 0.00 | 0.00 | 0.00 | 84 | 1008.9 |
| 20260502212008 | 10 | 303 | 12.9 | 19.3 | 0.00 | 0.00 | 0.00 | 84 | 1009.0 |
| 20260502211508 | 10 | 297 | 14.5 | 24.1 | 0.00 | 0.00 | 0.00 | 84 | 1008.9 |
| 20260502211008 | 10 | 298 | 14.5 | 20.9 | 0.00 | 0.00 | 0.00 | 84 | 1009.1 |
| 20260502210507 | 10 | 262 | 9.7 | 19.3 | 0.00 | 0.00 | 0.00 | 84 | 1009.1 |
| 20260502210011 | 10 | 299 | 8.0 | 11.3 | 0.00 | 0.00 | 0.00 | 84 | 1009.2 |
| 20260502205008 | 10 | 295 | 8.0 | 11.3 | 0.00 | 0.00 | 0.00 | 85 | 1009.1 |
| 20260502204508 | 10 | 272 | 8.0 | 12.9 | 0.00 | 0.00 | 0.00 | 85 | 1009.4 |
| 20260502204007 | 10 | 278 | 8.0 | 12.9 | 0.00 | 0.00 | 0.00 | 85 | 1009.3 |
| 20260502203507 | 10 | 286 | 6.4 | 9.7 | 0.00 | 0.00 | 0.00 | 85 | 1009.3 |
| 20260502203011 | 10 | 296 | 4.8 | 8.0 | 0.00 | 0.00 | 0.00 | 85 | 1009.3 |
| 20260502202007 | 10 | 308 | 3.2 | 4.8 | 0.00 | 0.00 | 0.00 | 85 | 1009.2 |
| 20260502201508 | 10 | 308 | 4.8 | 8.0 | 0.00 | 0.00 | 0.00 | 85 | 1009.2 |
| 20260502200507 | 10 | 324 | 6.4 | 12.9 | 0.00 | 0.00 | 0.00 | 84 | 1009.2 |
| 20260502200011 | 10 | 303 | 8.0 | 14.5 | 0.00 | 0.00 | 0.00 | 84 | 1009.2 |
| 20260502195507 | 10 | 306 | 11.3 | 14.5 | 0.00 | 0.00 | 0.00 | 84 | 1009.2 |
| 20260502195007 | 10 | 292 | 11.3 | 14.5 | 0.00 | 0.00 | 0.00 | 84 | 1009.2 |
| 20260502194507 | 10 | 291 | 8.0 | 12.9 | 0.00 | 0.00 | 0.00 | 84 | 1009.2 |
| 20260502194007 | 10 | 294 | 11.3 | 16.1 | 0.00 | 0.00 | 0.00 | 83 | 1009.1 |
| 20260502193507 | 10 | 290 | 12.9 | 19.3 | 0.00 | 0.00 | 0.00 | 83 | 1009.1 |
| 20260502193011 | 10 | 301 | 12.9 | 16.1 | 0.00 | 0.00 | 0.00 | 83 | 1009.0 |
| 20260502192507 | 10 | 298 | 11.3 | 16.1 | 0.00 | 0.00 | 0.00 | 82 | 1008.9 |
| 20260502192007 | 10 | 290 | 11.3 | 14.5 | 0.00 | 0.00 | 0.00 | 82 | 1009.0 |
| 20260502191507 | 10 | 293 | 9.7 | 12.9 | 0.00 | 0.00 | 0.00 | 82 | 1008.9 |
| 20260502190011 | 10 | 301 | 8.0 | 11.3 | 0.00 | 0.00 | 0.00 | 82 | 1008.8 |
| 20260502185507 | 10 | 290 | 4.8 | 9.7 | 0.00 | 0.00 | 0.00 | 82 | 1008.8 |
| 20260502185007 | 10 | 271 | 4.8 | 9.7 | 0.00 | 0.00 | 0.00 | 82 | 1008.9 |
| 20260502184507 | 10 | 299 | 8.0 | 11.3 | 0.00 | 0.00 | 0.00 | 82 | 1008.9 |
| 20260502184008 | 10 | 292 | 4.8 | 11.3 | 0.00 | 0.00 | 0.00 | 82 | 1009.0 |
| 20260502183011 | 10 | 281 | 8.0 | 14.5 | 0.00 | 0.00 | 0.00 | 81 | 1009.2 |
| 20260502182507 | 10 | 295 | 9.7 | 14.5 | 0.00 | 0.00 | 0.00 | 81 | 1009.1 |
| 20260502182007 | 10 | 297 | 8.0 | 12.9 | 0.00 | 0.00 | 0.00 | 81 | 1009.1 |
| 20260502181507 | 10 | 292 | 6.4 | 11.3 | 0.00 | 0.00 | 0.00 | 81 | 1009.1 |
| 20260502181007 | 10 | 293 | 4.8 | 9.7 | 0.00 | 0.00 | 0.00 | 81 | 1009.1 |
| 20260502164007 | 11 | 185 | 12.9 | 19.3 | 0.00 | 0.00 | 0.00 | 77 | 1009.2 |
| 20260502163507 | 11 | 181 | 8.0 | 12.9 | 0.00 | 0.00 | 0.00 | 77 | 1009.2 |
| 20260502163011 | 11 | 181 | 8.0 | 11.3 | 0.00 | 0.00 | 0.00 | 76 | 1009.1 |
| 20260502162507 | 11 | 197 | 8.0 | 9.7 | 0.00 | 0.00 | 0.00 | 76 | 1009.1 |
| 20260502161007 | 11 | 179 | 4.8 | 9.7 | 0.00 | 0.00 | 0.00 | 76 | 1009.3 |
| 20260502160507 | 12 | 185 | 6.4 | 11.3 | 0.00 | 0.00 | 0.00 | 76 | 1009.3 |
| 20260502152007 | 12 | 5 | 1.6 | 8.0 | 0.00 | 0.00 | 0.00 | 74 | 1010.3 |
| 20260502151507 | 12 | 156 | 4.8 | 8.0 | 0.00 | 0.00 | 0.00 | 73 | 1010.3 |
| 20260502151007 | 12 | 167 | 4.8 | 12.9 | 0.00 | 0.00 | 0.00 | 73 | 1010.4 |
| 20260502150506 | 12 | 156 | 9.7 | 14.5 | 0.00 | 0.00 | 0.00 | 72 | 1010.4 |
| 20260502130507 | 12 | 241 | 6.4 | 9.7 | 0.00 | 0.00 | 0.00 | 73 | 1011.1 |
| 20260502123010 | 12 | 171 | 8.0 | 12.9 | 0.00 | 0.00 | 0.00 | 72 | 1011.6 |
| 20260502122506 | 12 | 166 | 8.0 | 9.7 | 0.00 | 0.00 | 0.00 | 72 | 1011.8 |
| 20260502122007 | 12 | 186 | 4.8 | 11.3 | 0.00 | 0.00 | 0.00 | 71 | 1011.8 |
| 20260502121006 | 12 | 170 | 9.7 | 12.9 | 0.00 | 0.00 | 0.00 | 71 | 1011.8 |
| 20260502120506 | 12 | 174 | 9.7 | 14.5 | 0.00 | 0.00 | 0.00 | 70 | 1011.8 |
| 20260502115506 | 12 | 177 | 11.3 | 14.5 | 0.00 | 0.00 | 0.00 | 70 | 1011.8 |
| 20260502114506 | 12 | 178 | 11.3 | 14.5 | 0.00 | 0.00 | 0.00 | 69 | 1011.6 |
| 20260502114007 | 13 | 184 | 11.3 | 16.1 | 0.00 | 0.00 | 0.00 | 69 | 1011.5 |
| 20260502113506 | 13 | 174 | 11.3 | 16.1 | 0.00 | 0.00 | 0.00 | 69 | 1011.6 |
| 20260502113010 | 13 | 181 | 11.3 | 16.1 | 0.00 | 0.00 | 0.00 | 69 | 1011.5 |
| 20260502112506 | 13 | 176 | 11.3 | 14.5 | 0.00 | 0.00 | 0.00 | 68 | 1011.5 |
| 20260502112007 | 13 | 172 | 9.7 | 16.1 | 0.00 | 0.00 | 0.00 | 68 | 1011.7 |
| 20260502111507 | 13 | 175 | 11.3 | 16.1 | 0.00 | 0.00 | 0.00 | 68 | 1011.7 |
| 20260502111006 | 13 | 181 | 11.3 | 16.1 | 0.00 | 0.00 | 0.00 | 68 | 1011.6 |
| 20260502110010 | 13 | 172 | 11.3 | 16.1 | 0.00 | 0.00 | 0.00 | 69 | 1011.8 |
| 20260502104006 | 13 | 183 | 11.3 | 14.5 | 0.00 | 0.00 | 0.00 | 70 | 1011.9 |
| 20260502103010 | 13 | 172 | 11.3 | 14.5 | 0.00 | 0.00 | 0.00 | 71 | 1012.1 |
| 20260502102006 | 13 | 181 | 9.7 | 12.9 | 0.00 | 0.00 | 0.00 | 72 | 1011.9 |
| 20260502101506 | 13 | 187 | 9.7 | 12.9 | 0.00 | 0.00 | 0.00 | 72 | 1012.0 |
| 20260502100506 | 12 | 182 | 11.3 | 14.5 | 0.00 | 0.00 | 0.00 | 72 | 1012.1 |
| 20260502091006 | 12 | 175 | 9.7 | 12.9 | 0.00 | 0.00 | 0.00 | 77 | 1012.4 |
| 20260502090506 | 11 | 183 | 11.3 | 14.5 | 0.00 | 0.00 | 0.00 | 77 | 1012.4 |
| 20260502071509 | 10 | 181 | 6.4 | 9.7 | 0.00 | 0.00 | 0.00 | 79 | 1013.1 |
| 20260502070508 | 10 | 87 | 3.2 | 9.7 | 0.00 | 0.00 | 0.00 | 79 | 1013.1 |
| 20260502070012 | 10 | 81 | 4.8 | 9.7 | 0.00 | 0.00 | 0.00 | 79 | 1013.1 |
| 20260502065509 | 10 | 340 | 1.6 | 9.7 | 0.00 | 0.00 | 0.00 | 79 | 1012.9 |
| 20260502064508 | 9 | 117 | 4.8 | 11.3 | 0.00 | 0.00 | 0.00 | 79 | 1013.1 |
| 20260502064009 | 9 | 93 | 8.0 | 12.9 | 0.00 | 0.00 | 0.00 | 79 | 1013.0 |
| 20260502063509 | 8 | 90 | 3.2 | 9.7 | 0.00 | 0.00 | 0.00 | 78 | 1013.1 |
| 20260502063013 | 8 | 85 | 3.2 | 9.7 | 0.00 | 0.00 | 0.00 | 78 | 1013.1 |
| 20260502062509 | 8 | 97 | 4.8 | 11.3 | 0.00 | 0.00 | 0.00 | 78 | 1013.2 |
| 20260502062008 | 8 | 96 | 4.8 | 12.9 | 0.00 | 0.00 | 0.00 | 78 | 1013.2 |
| 20260502061509 | 8 | 90 | 4.8 | 11.3 | 0.00 | 0.00 | 0.00 | 78 | 1013.2 |
| 20260502061009 | 8 | 109 | 4.8 | 9.7 | 0.00 | 0.00 | 0.00 | 77 | 1013.2 |
| 20260502060508 | 8 | 110 | 3.2 | 8.0 | 0.00 | 0.00 | 0.00 | 77 | 1013.2 |
| 20260502060012 | 8 | 74 | 3.2 | 8.0 | 0.00 | 0.00 | 0.00 | 77 | 1013.2 |
| 20260502055510 | 8 | 121 | 3.2 | 8.0 | 0.00 | 0.00 | 0.00 | 78 | 1013.3 |
| 20260502054509 | 8 | 101 | 4.8 | 9.7 | 0.00 | 0.00 | 0.00 | 78 | 1013.3 |
| 20260502054008 | 8 | 72 | 4.8 | 9.7 | 0.00 | 0.00 | 0.00 | 78 | 1013.4 |
| 20260502053508 | 7 | 74 | 6.4 | 11.3 | 0.00 | 0.00 | 0.00 | 78 | 1013.3 |
| 20260502052508 | 7 | 80 | 8.0 | 9.7 | 0.00 | 0.00 | 0.00 | 77 | 1013.4 |
| 20260502052008 | 7 | 79 | 6.4 | 11.3 | 0.00 | 0.00 | 0.00 | 77 | 1013.5 |
| 20260502051509 | 7 | 88 | 6.4 | 9.7 | 0.00 | 0.00 | 0.00 | 77 | 1013.3 |
| 20260502051008 | 7 | 82 | 4.8 | 9.7 | 0.00 | 0.00 | 0.00 | 77 | 1013.3 |
| 20260502050508 | 7 | 76 | 6.4 | 11.3 | 0.00 | 0.00 | 0.00 | 77 | 1013.4 |
| 20260502050012 | 7 | 81 | 8.0 | 11.3 | 0.00 | 0.00 | 0.00 | 77 | 1013.4 |
| 20260502045508 | 7 | 75 | 8.0 | 12.9 | 0.00 | 0.00 | 0.00 | 77 | 1013.4 |
| 20260502045008 | 7 | 71 | 8.0 | 12.9 | 0.00 | 0.00 | 0.00 | 77 | 1013.4 |
| 20260502044508 | 7 | 81 | 8.0 | 12.9 | 0.00 | 0.00 | 0.00 | 77 | 1013.5 |
| 20260502044008 | 7 | 81 | 8.0 | 12.9 | 0.00 | 0.00 | 0.00 | 77 | 1013.5 |
| 20260502043508 | 7 | 73 | 8.0 | 12.9 | 0.00 | 0.00 | 0.00 | 77 | 1013.6 |
| 20260502043012 | 7 | 76 | 8.0 | 12.9 | 0.00 | 0.00 | 0.00 | 77 | 1013.6 |
| 20260502042508 | 7 | 69 | 6.4 | 11.3 | 0.00 | 0.00 | 0.00 | 77 | 1013.7 |
| 20260502042008 | 7 | 75 | 8.0 | 11.3 | 0.00 | 0.00 | 0.00 | 77 | 1013.7 |
| 20260502041508 | 7 | 64 | 6.4 | 12.9 | 0.00 | 0.00 | 0.00 | 77 | 1013.8 |
| 20260502041009 | 7 | 68 | 9.7 | 12.9 | 0.00 | 0.00 | 0.00 | 76 | 1013.8 |
| 20260502040508 | 7 | 86 | 6.4 | 11.3 | 0.00 | 0.00 | 0.00 | 76 | 1014.0 |
| 20260502040012 | 7 | 86 | 6.4 | 9.7 | 0.00 | 0.00 | 0.00 | 76 | 1014.1 |
| 20260502035508 | 7 | 84 | 8.0 | 11.3 | 0.00 | 0.00 | 0.00 | 76 | 1014.1 |
| 20260502035008 | 7 | 76 | 8.0 | 11.3 | 0.00 | 0.00 | 0.00 | 76 | 1014.0 |
| 20260502034508 | 7 | 73 | 8.0 | 12.9 | 0.00 | 0.00 | 0.00 | 76 | 1014.1 |
| 20260502034008 | 7 | 66 | 8.0 | 11.3 | 0.00 | 0.00 | 0.00 | 76 | 1014.1 |
| 20260502033508 | 7 | 58 | 8.0 | 11.3 | 0.00 | 0.00 | 0.00 | 76 | 1014.2 |
| 20260502033012 | 7 | 75 | 4.8 | 8.0 | 0.00 | 0.00 | 0.00 | 76 | 1014.3 |
| 20260502032008 | 7 | 72 | 3.2 | 4.8 | 0.00 | 0.00 | 0.00 | 76 | 1014.6 |
| 20260502031508 | 7 | 80 | 3.2 | 9.7 | 0.00 | 0.00 | 0.00 | 76 | 1014.7 |
| 20260502031008 | 7 | 81 | 4.8 | 8.0 | 0.00 | 0.00 | 0.00 | 76 | 1014.7 |
| 20260502030508 | 7 | 80 | 6.4 | 11.3 | 0.00 | 0.00 | 0.00 | 76 | 1014.8 |
| 20260502025508 | 7 | 86 | 4.8 | 9.7 | 0.00 | 0.00 | 0.00 | 76 | 1014.9 |
| 20260502024508 | 7 | 90 | 4.8 | 9.7 | 0.00 | 0.00 | 0.00 | 76 | 1015.0 |
| 20260502024008 | 7 | 89 | 6.4 | 9.7 | 0.00 | 0.00 | 0.00 | 76 | 1015.1 |
| 20260502023508 | 7 | 87 | 4.8 | 8.0 | 0.00 | 0.00 | 0.00 | 76 | 1015.2 |
| 20260502023012 | 7 | 100 | 3.2 | 4.8 | 0.00 | 0.00 | 0.00 | 76 | 1015.3 |
| 20260502022508 | 7 | 88 | 4.8 | 8.0 | 0.00 | 0.00 | 0.00 | 76 | 1015.4 |
| 20260502022008 | 7 | 64 | 3.2 | 9.7 | 0.00 | 0.00 | 0.00 | 76 | 1015.3 |
| 20260502021508 | 7 | 92 | 8.0 | 11.3 | 0.00 | 0.00 | 0.00 | 76 | 1015.5 |
| 20260502021007 | 8 | 90 | 8.0 | 11.3 | 0.00 | 0.00 | 0.00 | 76 | 1015.6 |
| 20260502020508 | 8 | 101 | 3.2 | 4.8 | 0.00 | 0.00 | 0.00 | 76 | 1015.9 |
| 20260502020012 | 8 | 81 | 3.2 | 4.8 | 0.00 | 0.00 | 0.00 | 76 | 1015.8 |
| 20260502015508 | 8 | 109 | 4.8 | 8.0 | 0.00 | 0.00 | 0.00 | 76 | 1015.8 |
| 20260502015008 | 8 | 90 | 4.8 | 8.0 | 0.00 | 0.00 | 0.00 | 76 | 1015.9 |
| 20260502014008 | 8 | 87 | 3.2 | 9.7 | 0.00 | 0.00 | 0.00 | 76 | 1016.1 |
| 20260502013508 | 8 | 86 | 8.0 | 11.3 | 0.00 | 0.00 | 0.00 | 76 | 1016.2 |
| 20260502013011 | 8 | 79 | 4.8 | 8.0 | 0.00 | 0.00 | 0.00 | 76 | 1016.3 |
| 20260502012508 | 8 | 354 | 1.6 | 3.2 | 0.00 | 0.00 | 0.00 | 76 | 1016.2 |
| 20260502012007 | 8 | 57 | 3.2 | 9.7 | 0.00 | 0.00 | 0.00 | 76 | 1016.3 |
| 20260502011008 | 8 | 90 | 4.8 | 9.7 | 0.00 | 0.00 | 0.00 | 76 | 1016.4 |
| 20260502010011 | 8 | 87 | 6.4 | 9.7 | 0.00 | 0.00 | 0.00 | 76 | 1016.5 |